createdAt,value
2023-04-28T00:01:28.488Z,29.23
2023-04-28T00:03:58.374Z,29.08
2023-04-28T00:06:26.626Z,34.17
2023-04-28T00:08:54.806Z,29.20
2023-04-28T00:11:22.788Z,28.60
2023-04-28T00:13:51.904Z,26.42
2023-04-28T00:16:20.106Z,26.35
2023-04-28T00:18:48.201Z,27.40
2023-04-28T00:21:16.403Z,22.80
2023-04-28T00:23:44.329Z,30.63
2023-04-28T00:26:13.104Z,26.95
2023-04-28T00:28:43.916Z,24.52
2023-04-28T00:31:13.385Z,23.95
2023-04-28T00:33:43.042Z,25.83
2023-04-28T00:36:11.683Z,32.70
2023-04-28T00:38:39.804Z,23.73
2023-04-28T00:41:09.628Z,26.52
2023-04-28T00:43:47.668Z,24.15
2023-04-28T00:46:29.987Z,21.95
2023-04-28T00:48:58.645Z,24.00
2023-04-28T00:51:36.722Z,26.13
2023-04-28T00:54:06.172Z,25.30
2023-04-28T00:56:34.417Z,22.73
2023-04-28T00:59:02.411Z,23.40
2023-04-28T01:01:30.918Z,22.77
2023-04-28T01:03:59.407Z,23.77
2023-04-28T01:06:29.141Z,29.45
2023-04-28T01:08:59.884Z,30.13
2023-04-28T01:11:28.055Z,29.42
2023-04-28T01:14:08.139Z,23.27
2023-04-28T01:16:39.423Z,23.50
2023-04-28T01:19:08.451Z,26.20
2023-04-28T01:21:43.137Z,30.02
2023-04-28T01:24:27.856Z,24.45
2023-04-28T01:26:59.165Z,30.80
2023-04-28T01:29:28.007Z,23.48
2023-04-28T01:31:56.496Z,27.50
2023-04-28T01:34:25.155Z,25.77
2023-04-28T01:36:53.010Z,25.63
2023-04-28T01:39:21.457Z,26.60
2023-04-28T01:41:49.707Z,30.90
2023-04-28T01:44:17.938Z,23.38
2023-04-28T01:46:47.020Z,24.38
2023-04-28T01:49:16.980Z,22.48
2023-04-28T01:51:45.169Z,24.73
2023-04-28T01:54:15.117Z,29.17
2023-04-28T01:56:43.884Z,28.73
2023-04-28T01:59:14.440Z,25.88
2023-04-28T02:01:42.573Z,19.25
2023-04-28T02:04:11.431Z,23.10
2023-04-28T02:06:40.074Z,25.20
2023-04-28T02:09:08.090Z,23.95
2023-04-28T02:11:36.718Z,28.75
2023-04-28T02:14:04.629Z,23.80
2023-04-28T02:16:34.339Z,24.73
2023-04-28T02:19:04.141Z,25.25
2023-04-28T02:21:33.030Z,25.02
2023-04-28T02:24:00.954Z,22.40
2023-04-28T02:26:29.218Z,23.25
2023-04-28T02:28:58.033Z,27.70
2023-04-28T02:31:26.178Z,23.55
2023-04-28T02:33:55.308Z,20.95
2023-04-28T02:36:23.213Z,27.50
2023-04-28T02:38:51.557Z,26.48
2023-04-28T02:41:20.997Z,30.05
2023-04-28T02:43:49.115Z,27.52
2023-04-28T02:46:17.264Z,31.00
2023-04-28T02:48:45.834Z,26.73
2023-04-28T02:51:14.430Z,30.50
2023-04-28T02:53:42.719Z,26.98
2023-04-28T02:56:11.997Z,31.23
2023-04-28T02:58:40.022Z,25.23
2023-04-28T03:01:08.098Z,25.17
2023-04-28T03:03:37.097Z,28.35
2023-04-28T03:06:05.512Z,28.42
2023-04-28T03:08:33.912Z,23.67
2023-04-28T03:11:01.875Z,26.08
2023-04-28T03:13:30.268Z,27.58
2023-04-28T03:15:58.765Z,30.88
2023-04-28T03:18:26.682Z,29.83
2023-04-28T03:20:58.019Z,28.23
2023-04-28T03:23:28.249Z,33.47
2023-04-28T03:25:59.016Z,32.55
2023-04-28T03:28:28.079Z,34.78
2023-04-28T03:30:56.210Z,36.72
2023-04-28T03:33:25.013Z,33.92
2023-04-28T03:36:02.186Z,37.58
2023-04-28T03:38:31.674Z,37.33
2023-04-28T03:41:00.960Z,40.72
2023-04-28T03:43:42.106Z,37.08
2023-04-28T03:46:20.032Z,39.60
2023-04-28T03:48:49.823Z,40.30
2023-04-28T03:51:20.423Z,36.90
2023-04-28T03:53:49.130Z,34.22
2023-04-28T03:56:17.114Z,32.92
2023-04-28T03:58:44.992Z,35.60
2023-04-28T04:01:12.923Z,36.55
2023-04-28T04:03:49.413Z,37.13
2023-04-28T04:06:19.146Z,32.92
2023-04-28T04:08:47.326Z,30.42
2023-04-28T04:11:16.886Z,30.27
2023-04-28T04:13:54.201Z,26.85
2023-04-28T04:16:25.519Z,33.92
2023-04-28T04:18:55.954Z,32.55
2023-04-28T04:21:29.031Z,31.58
2023-04-28T04:23:57.303Z,30.45
2023-04-28T04:26:26.601Z,25.17
2023-04-28T04:28:55.216Z,30.88
2023-04-28T04:31:23.288Z,30.02
2023-04-28T04:33:54.030Z,30.02
2023-04-28T04:36:23.200Z,30.48
2023-04-28T04:38:53.782Z,29.55
2023-04-28T04:41:23.499Z,34.08
2023-04-28T04:44:00.128Z,35.65
2023-04-28T04:46:36.614Z,30.80
2023-04-28T04:49:04.996Z,30.27
2023-04-28T04:51:33.047Z,28.42
2023-04-28T04:54:01.208Z,25.63
2023-04-28T04:56:29.205Z,27.52
2023-04-28T04:58:57.976Z,24.13
2023-04-28T05:01:37.496Z,25.60
2023-04-28T05:04:05.897Z,27.00
2023-04-28T05:06:53.988Z,24.58
2023-04-28T05:09:23.531Z,34.40
2023-04-28T05:11:51.825Z,24.02
2023-04-28T05:14:19.931Z,22.65
2023-04-28T05:16:48.351Z,23.60
2023-04-28T05:19:21.449Z,21.60
2023-04-28T05:21:54.147Z,19.58
2023-04-28T05:24:26.046Z,19.27
2023-04-28T05:26:54.350Z,20.88
2023-04-28T05:29:23.284Z,21.40
2023-04-28T05:31:52.303Z,26.60
2023-04-28T05:34:53.753Z,23.38
2023-04-28T05:37:21.939Z,21.80
2023-04-28T05:39:49.994Z,22.10
2023-04-28T05:42:18.326Z,21.85
2023-04-28T05:44:46.684Z,23.08
2023-04-28T05:47:15.154Z,25.17
2023-04-28T05:49:43.317Z,27.08
2023-04-28T05:52:12.450Z,26.38
2023-04-28T05:54:49.287Z,24.63
2023-04-28T05:57:17.754Z,21.70
2023-04-28T05:59:50.763Z,25.15
2023-04-28T06:02:21.288Z,26.02
2023-04-28T06:04:55.503Z,24.35
2023-04-28T06:07:23.783Z,24.58
2023-04-28T06:09:57.029Z,21.73
2023-04-28T06:12:26.901Z,21.67
2023-04-28T06:14:56.370Z,21.05
2023-04-28T06:17:32.370Z,20.27
2023-04-28T06:20:16.874Z,19.37
2023-04-28T06:22:48.967Z,21.30
2023-04-28T06:25:38.118Z,21.63
2023-04-28T06:28:07.678Z,21.50
2023-04-28T06:30:42.486Z,17.92
2023-04-28T06:33:11.260Z,20.17
2023-04-28T06:35:46.144Z,22.55
2023-04-28T06:38:17.605Z,20.77
2023-04-28T06:40:46.352Z,24.20
2023-04-28T06:43:15.355Z,23.08
2023-04-28T06:45:57.313Z,20.85
2023-04-28T06:48:27.789Z,23.73
2023-04-28T06:51:01.208Z,22.77
2023-04-28T06:53:31.720Z,21.73
2023-04-28T06:56:00.415Z,21.60
2023-04-28T06:58:56.162Z,24.65
2023-04-28T07:01:30.018Z,26.48
2023-04-28T07:03:59.373Z,24.67
2023-04-28T07:06:27.851Z,25.95
2023-04-28T07:09:27.161Z,30.33
2023-04-28T07:11:58.493Z,28.75
2023-04-28T07:14:28.446Z,32.88
2023-04-28T07:16:57.672Z,29.95
2023-04-28T07:19:27.355Z,31.92
2023-04-28T07:21:55.588Z,31.48
2023-04-28T07:24:23.896Z,30.92
2023-04-28T07:26:59.180Z,27.83
2023-04-28T07:29:47.106Z,32.83
2023-04-28T07:32:16.925Z,27.95
2023-04-28T07:34:49.574Z,32.47
2023-04-28T07:37:24.216Z,33.30
2023-04-28T07:39:53.530Z,30.50
2023-04-28T07:42:22.555Z,33.90
2023-04-28T07:44:52.765Z,35.28
2023-04-28T07:47:21.115Z,29.90
2023-04-28T07:49:49.189Z,28.52
2023-04-28T07:52:17.152Z,26.48
2023-04-28T07:54:46.821Z,34.40
2023-04-28T07:57:15.637Z,30.83
2023-04-28T07:59:53.132Z,29.95
2023-04-28T08:02:23.928Z,25.73
2023-04-28T08:04:52.971Z,28.73
2023-04-28T08:07:30.923Z,28.27
2023-04-28T08:10:01.676Z,26.70
2023-04-28T08:12:29.704Z,29.42
2023-04-28T08:14:58.073Z,38.88
2023-04-28T08:17:27.090Z,30.67
2023-04-28T08:19:56.637Z,27.15
2023-04-28T08:22:24.940Z,29.77
2023-04-28T08:24:58.770Z,25.50
2023-04-28T08:27:31.002Z,23.77
2023-04-28T08:30:10.574Z,22.27
2023-04-28T08:32:45.086Z,25.27
2023-04-28T08:35:13.213Z,23.38
2023-04-28T08:37:41.968Z,24.77
2023-04-28T08:40:10.906Z,24.83
2023-04-28T08:42:40.421Z,25.08
2023-04-28T08:45:09.649Z,22.73
2023-04-28T08:47:39.789Z,24.63
2023-04-28T08:50:12.592Z,22.00
2023-04-28T08:52:41.966Z,23.52
2023-04-28T08:55:13.087Z,19.65
2023-04-28T08:58:09.096Z,20.70
2023-04-28T09:00:44.360Z,17.02
2023-04-28T09:03:15.723Z,22.13
2023-04-28T09:05:47.502Z,18.40
2023-04-28T09:08:23.443Z,17.90
2023-04-28T09:11:08.449Z,17.75
2023-04-28T09:13:38.383Z,18.23
2023-04-28T09:16:08.161Z,17.02
2023-04-28T09:18:38.859Z,15.80
2023-04-28T09:21:11.105Z,16.63
2023-04-28T09:23:49.317Z,15.90
2023-04-28T09:26:17.393Z,19.30
2023-04-28T09:28:45.358Z,15.30
2023-04-28T09:31:26.130Z,15.48
2023-04-28T09:33:58.533Z,15.52
2023-04-28T09:36:29.785Z,15.40
2023-04-28T09:38:59.205Z,14.68
2023-04-28T09:41:38.674Z,12.82
2023-04-28T09:44:16.747Z,12.88
2023-04-28T09:46:46.329Z,14.80
2023-04-28T09:49:16.940Z,17.92
2023-04-28T09:51:45.550Z,13.57
2023-04-28T09:54:13.828Z,17.73
2023-04-28T09:56:48.418Z,11.63
2023-04-28T09:59:36.523Z,14.18
2023-04-28T10:02:12.785Z,13.25
2023-04-28T10:04:53.160Z,12.90
2023-04-28T10:07:21.893Z,11.23
2023-04-28T10:09:51.334Z,19.05
2023-04-28T10:12:22.002Z,12.63
2023-04-28T10:14:57.298Z,12.27
2023-04-28T10:17:25.796Z,10.35
2023-04-28T10:19:54.641Z,11.75
2023-04-28T10:22:38.245Z,9.18
2023-04-28T10:25:13.209Z,9.90
2023-04-28T10:27:46.989Z,8.63
2023-04-28T10:31:22.129Z,9.55
2023-04-28T10:33:52.455Z,9.07
2023-04-28T10:36:51.066Z,8.10
2023-04-28T10:39:22.351Z,6.70
2023-04-28T10:41:50.597Z,5.80
2023-04-28T10:44:31.939Z,7.25
2023-04-28T10:47:07.730Z,6.95
2023-04-28T10:50:08.131Z,9.07
2023-04-28T10:52:52.080Z,7.30
2023-04-28T10:55:43.035Z,6.47
2023-04-28T10:58:38.086Z,6.35
2023-04-28T11:01:24.212Z,6.68
2023-04-28T11:04:08.034Z,5.90
2023-04-28T11:06:40.331Z,5.68
2023-04-28T11:09:15.824Z,5.53
2023-04-28T11:12:26.463Z,5.53
2023-04-28T11:14:56.632Z,8.13
2023-04-28T11:17:42.056Z,5.82
2023-04-28T11:20:13.828Z,7.03
2023-04-28T11:22:42.507Z,6.95
2023-04-28T11:25:10.603Z,7.32
2023-04-28T11:27:40.631Z,6.80
2023-04-28T11:30:53.104Z,4.20
2023-04-28T11:33:26.409Z,5.00
2023-04-28T11:35:54.572Z,5.45
2023-04-28T11:38:23.582Z,3.17
2023-04-28T11:41:01.851Z,5.90
2023-04-28T11:43:46.053Z,5.20
2023-04-28T11:46:22.924Z,3.97
2023-04-28T11:49:04.943Z,3.03
2023-04-28T11:51:37.649Z,2.88
2023-04-28T11:54:08.466Z,4.68
2023-04-28T11:56:44.196Z,6.97
2023-04-28T11:59:12.873Z,7.35
2023-04-28T12:01:49.380Z,3.40
2023-04-28T12:04:53.148Z,3.75
2023-04-28T12:07:21.393Z,2.83
2023-04-28T12:10:10.516Z,4.45
2023-04-28T12:13:26.540Z,4.32
2023-04-28T12:16:01.459Z,3.33
2023-04-28T12:18:30.022Z,5.60
2023-04-28T12:20:57.951Z,5.57
2023-04-28T12:23:40.276Z,3.53
2023-04-28T12:26:10.263Z,4.25
2023-04-28T12:29:02.356Z,4.43
2023-04-28T12:31:50.847Z,4.97
2023-04-28T12:34:19.428Z,3.88
2023-04-28T12:36:49.263Z,5.20
2023-04-28T12:39:23.286Z,5.20
2023-04-28T12:41:51.404Z,4.60
2023-04-28T12:44:23.522Z,4.18
2023-04-28T12:46:52.334Z,5.28
2023-04-28T12:49:26.981Z,5.60
2023-04-28T12:52:06.024Z,6.40
2023-04-28T12:54:37.722Z,8.32
2023-04-28T12:57:05.734Z,7.03
2023-04-28T12:59:57.124Z,7.38
2023-04-28T13:02:28.606Z,6.25
2023-04-28T13:04:57.378Z,6.38
2023-04-28T13:07:36.197Z,6.07
2023-04-28T13:10:05.128Z,8.90
2023-04-28T13:12:34.881Z,7.70
2023-04-28T13:15:08.243Z,10.52
2023-04-28T13:17:42.589Z,7.60
2023-04-28T13:20:11.158Z,9.52
2023-04-28T13:22:40.092Z,8.85
2023-04-28T13:25:31.697Z,8.82
2023-04-28T13:27:59.879Z,8.27
2023-04-28T13:30:35.251Z,9.35
2023-04-28T13:33:03.553Z,9.38
2023-04-28T13:35:31.753Z,9.90
2023-04-28T13:38:04.680Z,8.68
2023-04-28T13:40:33.141Z,8.77
2023-04-28T13:43:03.950Z,8.75
2023-04-28T13:45:32.317Z,9.63
2023-04-28T13:48:00.739Z,9.98
2023-04-28T13:50:30.408Z,11.43
2023-04-28T13:52:59.735Z,9.43
2023-04-28T13:55:29.518Z,16.00
2023-04-28T13:58:02.879Z,10.70
2023-04-28T14:00:32.731Z,9.48
2023-04-28T14:03:04.100Z,11.75
2023-04-28T14:05:49.454Z,12.45
2023-04-28T14:08:22.069Z,10.07
2023-04-28T14:10:52.054Z,12.02
2023-04-28T14:13:30.852Z,14.02
2023-04-28T14:16:02.805Z,14.68
2023-04-28T14:18:31.126Z,19.27
2023-04-28T14:21:03.427Z,14.63
2023-04-28T14:23:33.207Z,15.05
2023-04-28T14:26:24.818Z,13.95
2023-04-28T14:28:55.751Z,16.98
2023-04-28T14:31:29.487Z,15.02
2023-04-28T14:34:01.503Z,14.52
2023-04-28T14:36:51.956Z,14.65
2023-04-28T14:39:40.998Z,14.18
2023-04-28T14:42:14.084Z,12.60
2023-04-28T14:44:42.848Z,15.55
2023-04-28T14:47:12.598Z,16.58
2023-04-28T14:49:44.856Z,14.15
2023-04-28T14:52:14.630Z,12.75
2023-04-28T14:54:43.515Z,13.20
2023-04-28T14:57:17.096Z,11.40
2023-04-28T15:00:29.537Z,13.48
2023-04-28T15:08:10.750Z,12.20
2023-04-28T15:10:40.560Z,14.90
2023-04-28T15:13:10.045Z,10.63
2023-04-28T15:15:47.912Z,11.43
2023-04-28T15:18:21.305Z,11.52
2023-04-28T15:20:51.332Z,12.57
2023-04-28T15:23:20.720Z,12.25
2023-04-28T15:25:53.953Z,13.45
2023-04-28T15:28:27.929Z,10.80
2023-04-28T15:30:57.097Z,8.95
2023-04-28T15:33:57.974Z,9.70
2023-04-28T15:36:28.314Z,14.52
2023-04-28T15:39:00.329Z,10.00
2023-04-28T15:41:29.666Z,10.10
2023-04-28T15:43:57.968Z,10.57
2023-04-28T15:46:29.812Z,9.20
2023-04-28T15:49:00.429Z,9.98
2023-04-28T15:51:32.719Z,12.55
2023-04-28T15:54:03.262Z,11.50
2023-04-28T15:56:34.554Z,9.65
2023-04-28T15:59:02.691Z,11.63
2023-04-28T16:01:30.991Z,10.20
2023-04-28T16:03:59.502Z,11.52
2023-04-28T16:07:20.982Z,12.15
2023-04-28T16:09:55.506Z,7.75
2023-04-28T16:12:24.450Z,8.03
2023-04-28T16:14:53.107Z,9.52
2023-04-28T16:17:44.567Z,8.52
2023-04-28T16:20:14.178Z,8.88
2023-04-28T16:22:43.340Z,8.30
2023-04-28T16:25:12.951Z,10.05
2023-04-28T16:27:41.239Z,7.60
2023-04-28T16:30:10.215Z,7.53
2023-04-28T16:33:13.833Z,10.80
2023-04-28T16:35:58.569Z,9.02
2023-04-28T16:38:26.826Z,7.32
2023-04-28T16:41:01.216Z,7.78
2023-04-28T16:43:29.235Z,7.60
2023-04-28T16:46:03.907Z,8.50
2023-04-28T16:48:36.014Z,7.47
2023-04-28T16:51:09.326Z,8.35
2023-04-28T16:53:39.187Z,9.15
2023-04-28T16:56:10.253Z,7.68
2023-04-28T16:58:43.456Z,13.55
2023-04-28T17:01:12.054Z,7.05
2023-04-28T17:03:42.351Z,8.82
2023-04-28T17:06:12.301Z,8.50
2023-04-28T17:08:49.676Z,6.93
2023-04-28T17:11:18.172Z,7.78
2023-04-28T17:13:47.558Z,6.15
2023-04-28T17:16:22.265Z,8.88
2023-04-28T17:18:56.638Z,8.57
2023-04-28T17:21:30.038Z,8.23
2023-04-28T17:24:00.419Z,5.97
2023-04-28T17:26:30.729Z,7.13
2023-04-28T17:29:00.163Z,6.80
2023-04-28T17:31:33.293Z,7.53
2023-04-28T17:34:01.642Z,5.40
2023-04-28T17:36:33.543Z,6.43
2023-04-28T17:39:01.731Z,8.18
2023-04-28T17:41:29.833Z,5.60
2023-04-28T17:43:59.282Z,7.43
2023-04-28T17:46:27.746Z,5.18
2023-04-28T17:48:56.370Z,5.25
2023-04-28T17:51:30.275Z,8.07
2023-04-28T17:54:04.221Z,6.93
2023-04-28T17:56:37.471Z,4.82
2023-04-28T17:59:09.187Z,6.28
2023-04-28T18:01:38.410Z,6.47
2023-04-28T18:04:06.521Z,4.57
2023-04-28T18:06:42.022Z,7.38
2023-04-28T18:09:15.244Z,5.15
2023-04-28T18:11:43.383Z,6.03
2023-04-28T18:14:11.564Z,8.23
2023-04-28T18:16:39.602Z,7.97
2023-04-28T18:19:08.750Z,8.40
2023-04-28T18:21:37.927Z,4.72
2023-04-28T18:24:06.222Z,6.97
2023-04-28T18:26:34.616Z,5.72
2023-04-28T18:29:24.296Z,5.35
2023-04-28T18:31:56.183Z,7.80
2023-04-28T18:34:24.681Z,7.15
2023-04-28T18:36:53.969Z,5.50
2023-04-28T18:39:22.947Z,4.90
2023-04-28T18:41:51.311Z,5.03
2023-04-28T18:44:21.982Z,8.15
2023-04-28T18:46:51.829Z,5.22
2023-04-28T18:49:20.942Z,6.28
2023-04-28T18:51:50.037Z,5.20
2023-04-28T18:54:19.569Z,5.38
2023-04-28T18:56:52.768Z,6.25
2023-04-28T18:59:20.929Z,4.50
2023-04-28T19:01:51.364Z,6.93
2023-04-28T19:04:20.724Z,7.15
2023-04-28T19:06:53.189Z,8.02
2023-04-28T19:09:21.433Z,5.97
2023-04-28T19:11:49.997Z,6.43
2023-04-28T19:14:23.484Z,6.63
2023-04-28T19:16:51.992Z,3.60
2023-04-28T19:19:20.283Z,3.90
2023-04-28T19:21:48.862Z,4.93
2023-04-28T19:24:21.901Z,4.95
2023-04-28T19:26:50.026Z,7.15
2023-04-28T19:29:24.424Z,5.63
2023-04-28T19:31:54.673Z,5.68
2023-04-28T19:34:22.782Z,5.43
2023-04-28T19:36:54.451Z,5.30
2023-04-28T19:39:28.699Z,5.75
2023-04-28T19:41:57.497Z,5.00
2023-04-28T19:44:27.997Z,4.97
2023-04-28T19:46:57.303Z,5.05
2023-04-28T19:49:26.301Z,8.93
2023-04-28T19:51:54.505Z,5.65
2023-04-28T19:54:23.758Z,9.88
2023-04-28T19:56:53.406Z,6.68
2023-04-28T19:59:21.894Z,4.72
2023-04-28T20:01:52.195Z,5.07
2023-04-28T20:04:20.565Z,3.67
2023-04-28T20:06:49.036Z,6.20
2023-04-28T20:09:17.473Z,4.93
2023-04-28T20:11:47.273Z,4.10
2023-04-28T20:14:16.616Z,6.63
2023-04-28T20:16:45.925Z,7.13
2023-04-28T20:19:14.469Z,5.18
2023-04-28T20:22:04.872Z,7.53
2023-04-28T20:24:35.236Z,6.05
2023-04-28T20:27:03.910Z,4.40
2023-04-28T20:29:35.554Z,5.35
2023-04-28T20:32:04.394Z,5.70
2023-04-28T20:34:36.538Z,6.43
2023-04-28T20:37:06.894Z,5.47
2023-04-28T20:39:37.360Z,6.18
2023-04-28T20:42:06.275Z,6.45
2023-04-28T20:44:36.060Z,4.43
2023-04-28T20:47:04.434Z,5.55
2023-04-28T20:49:33.298Z,5.05
2023-04-28T20:52:06.177Z,4.90
2023-04-28T20:54:38.302Z,4.53
2023-04-28T20:57:09.259Z,8.75
2023-04-28T20:59:37.504Z,4.43
2023-04-28T21:02:05.678Z,5.72
2023-04-28T21:04:33.820Z,4.45
2023-04-28T21:07:03.037Z,5.13
2023-04-28T21:09:31.016Z,4.43
2023-04-28T21:12:03.448Z,6.97
2023-04-28T21:14:34.308Z,4.78
2023-04-28T21:17:03.902Z,6.50
2023-04-28T21:19:32.720Z,5.53
2023-04-28T21:22:02.255Z,4.68
2023-04-28T21:24:30.372Z,5.55
2023-04-28T21:26:59.971Z,7.13
2023-04-28T21:29:28.385Z,5.93
2023-04-28T21:31:57.032Z,8.10
2023-04-28T21:34:26.435Z,5.75
2023-04-28T21:36:55.306Z,5.90
2023-04-28T21:39:23.420Z,4.82
2023-04-28T21:41:52.716Z,4.30
2023-04-28T21:44:24.622Z,5.45
2023-04-28T21:46:53.878Z,5.65
2023-04-28T21:49:22.172Z,9.02
2023-04-28T21:51:50.163Z,11.20
2023-04-28T21:54:18.745Z,6.43
2023-04-28T21:56:46.683Z,6.57
2023-04-28T21:59:14.727Z,6.25
2023-04-28T22:01:43.233Z,7.15
2023-04-28T22:04:11.469Z,9.55
2023-04-28T22:06:40.702Z,9.07
2023-04-28T22:09:09.530Z,5.10
2023-04-28T22:11:37.898Z,6.90
2023-04-28T22:14:05.946Z,7.70
2023-04-28T22:17:06.370Z,6.63
2023-04-28T22:19:37.566Z,9.35
2023-04-28T22:22:07.694Z,6.53
2023-04-28T22:24:36.256Z,7.18
2023-04-28T22:27:04.405Z,6.43
2023-04-28T22:29:36.221Z,6.10
2023-04-28T22:32:04.805Z,7.00
2023-04-28T22:34:36.972Z,7.28
2023-04-28T22:37:04.884Z,5.63
2023-04-28T22:39:33.288Z,5.43
2023-04-28T22:42:01.297Z,11.75
2023-04-28T22:44:33.402Z,7.43
2023-04-28T22:47:02.632Z,8.55
2023-04-28T22:50:06.301Z,5.30
2023-04-28T22:52:34.840Z,8.65
2023-04-28T22:55:03.641Z,7.38
2023-04-28T22:57:32.446Z,7.80
2023-04-28T23:00:02.045Z,8.27
2023-04-28T23:02:30.416Z,8.57
2023-04-28T23:05:00.110Z,6.53
2023-04-28T23:08:09.128Z,6.88
2023-04-28T23:10:37.464Z,6.88
2023-04-28T23:13:05.466Z,6.97
2023-04-28T23:15:34.482Z,6.57
2023-04-28T23:18:02.647Z,6.75
2023-04-28T23:20:33.772Z,8.48
2023-04-28T23:23:08.641Z,7.40
2023-04-28T23:25:40.646Z,7.97
2023-04-28T23:28:12.603Z,14.27
2023-04-28T23:30:40.662Z,8.68
2023-04-28T23:33:08.597Z,9.43
2023-04-28T23:35:42.046Z,7.80
2023-04-28T23:38:10.408Z,7.43
2023-04-28T23:40:48.519Z,5.95
2023-04-28T23:43:18.178Z,6.70
2023-04-28T23:45:49.901Z,10.02
2023-04-28T23:48:18.169Z,7.35
2023-04-28T23:50:46.183Z,7.03
2023-04-28T23:53:14.446Z,9.27
2023-04-28T23:55:44.543Z,7.75
2023-04-28T23:58:14.391Z,8.35
